sensor_id;sensor_type;location;lat;lon;timestamp;temperature;humidity
29713;DHT22;16623;53.632;10.016;2024-03-23T00:52:50;7.60;99.90
29713;DHT22;16623;53.632;10.016;2024-03-23T00:55:16;7.60;99.90
29713;DHT22;16623;53.632;10.016;2024-03-23T00:57:41;7.60;99.90
29713;DHT22;16623;53.632;10.016;2024-03-23T01:00:07;7.60;99.90
29713;DHT22;16623;53.632;10.016;2024-03-23T01:02:36;7.60;99.90
29713;DHT22;16623;53.632;10.016;2024-03-23T01:05:01;7.50;99.90
29713;DHT22;16623;53.632;10.016;2024-03-23T01:07:27;7.50;99.90
29713;DHT22;16623;53.632;10.016;2024-03-23T01:09:52;7.50;99.90
29713;DHT22;16623;53.632;10.016;2024-03-23T01:12:18;7.40;99.90
29713;DHT22;16623;53.632;10.016;2024-03-23T01:14:44;7.40;99.90
29713;DHT22;16623;53.632;10.016;2024-03-23T01:17:09;7.40;99.90
29713;DHT22;16623;53.632;10.016;2024-03-23T01:19:35;7.50;99.90
29713;DHT22;16623;53.632;10.016;2024-03-23T01:22:01;7.50;99.90
29713;DHT22;16623;53.632;10.016;2024-03-23T01:24:27;7.40;99.90
29713;DHT22;16623;53.632;10.016;2024-03-23T01:26:53;7.40;99.90
29713;DHT22;16623;53.632;10.016;2024-03-23T01:29:18;7.40;99.90
29713;DHT22;16623;53.632;10.016;2024-03-23T01:31:44;7.40;99.90
29713;DHT22;16623;53.632;10.016;2024-03-23T01:34:11;7.40;99.90
29713;DHT22;16623;53.632;10.016;2024-03-23T01:36:36;7.40;99.90
29713;DHT22;16623;53.632;10.016;2024-03-23T01:39:02;7.30;99.90
29713;DHT22;16623;53.632;10.016;2024-03-23T01:41:28;7.30;99.90
29713;DHT22;16623;53.632;10.016;2024-03-23T01:43:55;7.30;99.90
29713;DHT22;16623;53.632;10.016;2024-03-23T01:46:22;7.30;99.90
29713;DHT22;16623;53.632;10.016;2024-03-23T01:48:47;7.30;99.90
29713;DHT22;16623;53.632;10.016;2024-03-23T01:51:14;7.30;99.90
29713;DHT22;16623;53.632;10.016;2024-03-23T01:53:40;7.30;99.90
29713;DHT22;16623;53.632;10.016;2024-03-23T01:56:05;7.30;99.90
29713;DHT22;16623;53.632;10.016;2024-03-23T01:58:31;7.30;99.90
29713;DHT22;16623;53.632;10.016;2024-03-23T02:01:00;7.30;99.90
29713;DHT22;16623;53.632;10.016;2024-03-23T02:03:26;7.30;99.90
29713;DHT22;16623;53.632;10.016;2024-03-23T02:05:54;7.20;99.90
29713;DHT22;16623;53.632;10.016;2024-03-23T02:08:21;7.20;99.90
29713;DHT22;16623;53.632;10.016;2024-03-23T02:10:50;7.20;99.90
29713;DHT22;16623;53.632;10.016;2024-03-23T02:13:17;7.20;99.90
29713;DHT22;16623;53.632;10.016;2024-03-23T02:18:10;7.20;99.90
29713;DHT22;16623;53.632;10.016;2024-03-23T02:20:36;7.20;99.90
29713;DHT22;16623;53.632;10.016;2024-03-23T02:23:03;7.20;99.90
29713;DHT22;16623;53.632;10.016;2024-03-23T02:25:31;7.10;99.90
29713;DHT22;16623;53.632;10.016;2024-03-23T02:27:57;8.70;99.90
29713;DHT22;16623;53.632;10.016;2024-03-23T02:30:24;7.10;99.90
29713;DHT22;16623;53.632;10.016;2024-03-23T02:32:50;7.00;99.90
29713;DHT22;16623;53.632;10.016;2024-03-23T02:35:15;7.00;99.90
29713;DHT22;16623;53.632;10.016;2024-03-23T02:37:41;6.90;99.90
29713;DHT22;16623;53.632;10.016;2024-03-23T02:40:06;6.90;99.90
29713;DHT22;16623;53.632;10.016;2024-03-23T02:42:32;6.90;99.90
29713;DHT22;16623;53.632;10.016;2024-03-23T02:44:58;6.90;99.90
29713;DHT22;16623;53.632;10.016;2024-03-23T02:47:24;6.90;99.90
29713;DHT22;16623;53.632;10.016;2024-03-23T02:49:50;6.90;99.90
29713;DHT22;16623;53.632;10.016;2024-03-23T02:52:15;6.90;99.90
29713;DHT22;16623;53.632;10.016;2024-03-23T02:54:41;6.90;99.90
29713;DHT22;16623;53.632;10.016;2024-03-23T02:57:10;6.90;99.90
29713;DHT22;16623;53.632;10.016;2024-03-23T02:59:35;6.90;99.90
29713;DHT22;16623;53.632;10.016;2024-03-23T03:02:01;6.90;99.90
29713;DHT22;16623;53.632;10.016;2024-03-23T03:04:27;6.90;99.90
29713;DHT22;16623;53.632;10.016;2024-03-23T03:06:53;6.80;99.90
29713;DHT22;16623;53.632;10.016;2024-03-23T03:09:18;6.80;99.90
29713;DHT22;16623;53.632;10.016;2024-03-23T03:11:44;6.70;99.90
29713;DHT22;16623;53.632;10.016;2024-03-23T03:14:09;6.70;99.90
29713;DHT22;16623;53.632;10.016;2024-03-23T03:16:35;6.70;99.90
29713;DHT22;16623;53.632;10.016;2024-03-23T03:19:01;6.60;99.90
29713;DHT22;16623;53.632;10.016;2024-03-23T03:21:26;6.70;99.90
29713;DHT22;16623;53.632;10.016;2024-03-23T03:23:52;6.70;99.90
29713;DHT22;16623;53.632;10.016;2024-03-23T03:26:18;6.70;99.90
29713;DHT22;16623;53.632;10.016;2024-03-23T03:28:43;6.70;99.90
29713;DHT22;16623;53.632;10.016;2024-03-23T03:31:15;6.70;99.90
29713;DHT22;16623;53.632;10.016;2024-03-23T03:33:42;6.60;99.90
29713;DHT22;16623;53.632;10.016;2024-03-23T03:36:07;6.70;99.90
29713;DHT22;16623;53.632;10.016;2024-03-23T03:38:33;6.70;99.90
29713;DHT22;16623;53.632;10.016;2024-03-23T03:41:01;6.60;99.90
29713;DHT22;16623;53.632;10.016;2024-03-23T03:43:26;6.60;99.90
29713;DHT22;16623;53.632;10.016;2024-03-23T03:45:57;6.60;99.90
29713;DHT22;16623;53.632;10.016;2024-03-23T03:48:23;6.60;99.90
29713;DHT22;16623;53.632;10.016;2024-03-23T03:50:49;6.70;99.90
29713;DHT22;16623;53.632;10.016;2024-03-23T03:53:14;6.70;99.90
29713;DHT22;16623;53.632;10.016;2024-03-23T03:55:40;6.70;99.90
29713;DHT22;16623;53.632;10.016;2024-03-23T03:58:06;6.60;99.90
29713;DHT22;16623;53.632;10.016;2024-03-23T04:00:32;6.60;99.90
29713;DHT22;16623;53.632;10.016;2024-03-23T04:02:57;6.60;99.90
29713;DHT22;16623;53.632;10.016;2024-03-23T04:05:23;6.60;99.90
29713;DHT22;16623;53.632;10.016;2024-03-23T04:07:49;6.60;99.90
29713;DHT22;16623;53.632;10.016;2024-03-23T04:10:14;6.60;99.90
29713;DHT22;16623;53.632;10.016;2024-03-23T04:12:42;6.70;99.90
29713;DHT22;16623;53.632;10.016;2024-03-23T04:15:08;6.60;99.90
29713;DHT22;16623;53.632;10.016;2024-03-23T04:17:34;6.60;99.90
29713;DHT22;16623;53.632;10.016;2024-03-23T04:20:00;6.60;99.90
29713;DHT22;16623;53.632;10.016;2024-03-23T04:22:26;6.60;99.90
29713;DHT22;16623;53.632;10.016;2024-03-23T04:24:55;6.60;99.90
29713;DHT22;16623;53.632;10.016;2024-03-23T04:27:25;6.60;99.90
29713;DHT22;16623;53.632;10.016;2024-03-23T04:29:51;6.60;99.90
29713;DHT22;16623;53.632;10.016;2024-03-23T04:32:17;6.50;99.90
29713;DHT22;16623;53.632;10.016;2024-03-23T04:34:43;6.50;99.90
29713;DHT22;16623;53.632;10.016;2024-03-23T04:37:09;6.50;99.90
29713;DHT22;16623;53.632;10.016;2024-03-23T04:39:38;6.40;99.90
29713;DHT22;16623;53.632;10.016;2024-03-23T04:42:04;6.30;99.90
29713;DHT22;16623;53.632;10.016;2024-03-23T04:44:30;6.40;99.90
29713;DHT22;16623;53.632;10.016;2024-03-23T04:46:57;6.40;99.90
29713;DHT22;16623;53.632;10.016;2024-03-23T04:49:22;6.40;99.90
29713;DHT22;16623;53.632;10.016;2024-03-23T04:51:48;7.50;99.90
29713;DHT22;16623;53.632;10.016;2024-03-23T04:54:13;6.40;99.90
29713;DHT22;16623;53.632;10.016;2024-03-23T04:56:39;6.40;99.90
29713;DHT22;16623;53.632;10.016;2024-03-23T04:59:05;6.40;99.90
29713;DHT22;16623;53.632;10.016;2024-03-23T05:01:34;6.40;99.90
29713;DHT22;16623;53.632;10.016;2024-03-23T05:03:59;6.40;99.90
29713;DHT22;16623;53.632;10.016;2024-03-23T05:06:25;6.40;99.90
29713;DHT22;16623;53.632;10.016;2024-03-23T05:08:51;6.30;99.90
29713;DHT22;16623;53.632;10.016;2024-03-23T05:11:17;6.30;99.90
29713;DHT22;16623;53.632;10.016;2024-03-23T05:13:43;6.30;99.90
29713;DHT22;16623;53.632;10.016;2024-03-23T05:16:09;6.30;99.90
29713;DHT22;16623;53.632;10.016;2024-03-23T05:18:34;6.30;99.90
29713;DHT22;16623;53.632;10.016;2024-03-23T05:21:00;6.20;99.90
29713;DHT22;16623;53.632;10.016;2024-03-23T05:23:27;6.20;99.90
29713;DHT22;16623;53.632;10.016;2024-03-23T05:25:53;6.40;99.90
29713;DHT22;16623;53.632;10.016;2024-03-23T05:28:20;6.40;99.90
29713;DHT22;16623;53.632;10.016;2024-03-23T05:30:53;6.30;99.90
29713;DHT22;16623;53.632;10.016;2024-03-23T05:33:19;6.40;99.90
29713;DHT22;16623;53.632;10.016;2024-03-23T05:35:45;6.40;99.90
29713;DHT22;16623;53.632;10.016;2024-03-23T05:38:11;6.40;99.90
29713;DHT22;16623;53.632;10.016;2024-03-23T05:40:37;6.40;99.90
29713;DHT22;16623;53.632;10.016;2024-03-23T05:43:06;6.40;99.90
29713;DHT22;16623;53.632;10.016;2024-03-23T05:45:31;6.50;99.90
29713;DHT22;16623;53.632;10.016;2024-03-23T05:47:57;6.40;99.90
29713;DHT22;16623;53.632;10.016;2024-03-23T05:50:23;6.50;99.90
29713;DHT22;16623;53.632;10.016;2024-03-23T05:52:49;6.50;99.90
29713;DHT22;16623;53.632;10.016;2024-03-23T05:55:15;6.50;99.90
29713;DHT22;16623;53.632;10.016;2024-03-23T05:57:41;6.50;99.90
29713;DHT22;16623;53.632;10.016;2024-03-23T06:00:07;6.60;99.90
29713;DHT22;16623;53.632;10.016;2024-03-23T06:02:44;6.50;99.90
29713;DHT22;16623;53.632;10.016;2024-03-23T06:05:11;6.50;99.90
29713;DHT22;16623;53.632;10.016;2024-03-23T06:07:37;6.60;99.90
29713;DHT22;16623;53.632;10.016;2024-03-23T06:10:03;6.60;99.90
29713;DHT22;16623;53.632;10.016;2024-03-23T06:12:28;6.60;99.90
29713;DHT22;16623;53.632;10.016;2024-03-23T06:14:54;6.60;99.90
29713;DHT22;16623;53.632;10.016;2024-03-23T06:17:20;6.60;99.90
29713;DHT22;16623;53.632;10.016;2024-03-23T06:19:45;6.70;99.90
29713;DHT22;16623;53.632;10.016;2024-03-23T06:22:11;6.70;99.90
29713;DHT22;16623;53.632;10.016;2024-03-23T06:24:37;6.80;99.90
29713;DHT22;16623;53.632;10.016;2024-03-23T06:27:02;6.90;99.90
29713;DHT22;16623;53.632;10.016;2024-03-23T06:29:28;7.00;99.90
29713;DHT22;16623;53.632;10.016;2024-03-23T06:31:54;7.10;99.90
29713;DHT22;16623;53.632;10.016;2024-03-23T06:34:20;7.20;99.90
29713;DHT22;16623;53.632;10.016;2024-03-23T06:36:47;7.20;99.90
29713;DHT22;16623;53.632;10.016;2024-03-23T06:39:13;7.20;99.90
29713;DHT22;16623;53.632;10.016;2024-03-23T06:41:42;7.10;99.90
29713;DHT22;16623;53.632;10.016;2024-03-23T06:44:07;7.10;99.90
29713;DHT22;16623;53.632;10.016;2024-03-23T06:46:33;7.10;99.90
29713;DHT22;16623;53.632;10.016;2024-03-23T06:48:58;7.30;99.90
29713;DHT22;16623;53.632;10.016;2024-03-23T06:51:24;7.40;99.90
29713;DHT22;16623;53.632;10.016;2024-03-23T06:53:49;7.40;99.90
29713;DHT22;16623;53.632;10.016;2024-03-23T06:56:15;7.40;99.90
29713;DHT22;16623;53.632;10.016;2024-03-23T06:58:41;7.40;99.90
29713;DHT22;16623;53.632;10.016;2024-03-23T07:01:06;7.30;99.90
29713;DHT22;16623;53.632;10.016;2024-03-23T07:03:32;7.40;99.90
29713;DHT22;16623;53.632;10.016;2024-03-23T07:05:58;7.30;99.90
29713;DHT22;16623;53.632;10.016;2024-03-23T07:08:24;7.30;99.90
29713;DHT22;16623;53.632;10.016;2024-03-23T07:10:49;7.50;99.90
29713;DHT22;16623;53.632;10.016;2024-03-23T07:13:15;7.30;99.90
29713;DHT22;16623;53.632;10.016;2024-03-23T07:15:40;7.30;99.90
29713;DHT22;16623;53.632;10.016;2024-03-23T07:18:06;7.40;99.90
29713;DHT22;16623;53.632;10.016;2024-03-23T07:20:32;7.30;99.90
29713;DHT22;16623;53.632;10.016;2024-03-23T07:22:57;7.30;99.90
29713;DHT22;16623;53.632;10.016;2024-03-23T07:25:23;7.50;99.90
29713;DHT22;16623;53.632;10.016;2024-03-23T07:27:50;7.50;99.90
29713;DHT22;16623;53.632;10.016;2024-03-23T07:30:16;7.60;99.90
29713;DHT22;16623;53.632;10.016;2024-03-23T07:32:44;7.80;99.90
29713;DHT22;16623;53.632;10.016;2024-03-23T07:35:10;7.90;99.90
29713;DHT22;16623;53.632;10.016;2024-03-23T07:37:35;7.80;99.90
29713;DHT22;16623;53.632;10.016;2024-03-23T07:40:01;7.80;99.90
29713;DHT22;16623;53.632;10.016;2024-03-23T07:42:26;7.90;99.90
29713;DHT22;16623;53.632;10.016;2024-03-23T07:44:52;8.00;99.90
29713;DHT22;16623;53.632;10.016;2024-03-23T07:47:19;8.10;99.90
29713;DHT22;16623;53.632;10.016;2024-03-23T07:49:45;8.10;99.90
29713;DHT22;16623;53.632;10.016;2024-03-23T07:52:11;8.20;99.90
29713;DHT22;16623;53.632;10.016;2024-03-23T07:54:36;8.30;99.90
29713;DHT22;16623;53.632;10.016;2024-03-23T07:57:02;8.30;99.90
29713;DHT22;16623;53.632;10.016;2024-03-23T07:59:27;8.40;99.90
29713;DHT22;16623;53.632;10.016;2024-03-23T08:01:56;8.60;99.90
29713;DHT22;16623;53.632;10.016;2024-03-23T08:04:22;8.60;99.90
29713;DHT22;16623;53.632;10.016;2024-03-23T08:06:47;8.70;99.90
29713;DHT22;16623;53.632;10.016;2024-03-23T08:09:13;8.90;99.90
29713;DHT22;16623;53.632;10.016;2024-03-23T08:11:39;9.00;99.90
29713;DHT22;16623;53.632;10.016;2024-03-23T08:14:04;9.20;99.90
29713;DHT22;16623;53.632;10.016;2024-03-23T08:16:31;9.30;99.90
29713;DHT22;16623;53.632;10.016;2024-03-23T08:18:56;9.50;99.90
29713;DHT22;16623;53.632;10.016;2024-03-23T08:21:22;9.50;99.90
29713;DHT22;16623;53.632;10.016;2024-03-23T08:23:48;9.50;99.90
29713;DHT22;16623;53.632;10.016;2024-03-23T08:26:15;9.60;99.90
29713;DHT22;16623;53.632;10.016;2024-03-23T08:28:41;9.70;99.90
29713;DHT22;16623;53.632;10.016;2024-03-23T08:31:11;9.80;99.90
29713;DHT22;16623;53.632;10.016;2024-03-23T08:33:38;10.00;99.90
29713;DHT22;16623;53.632;10.016;2024-03-23T08:36:05;10.10;99.90
29713;DHT22;16623;53.632;10.016;2024-03-23T08:38:31;10.00;99.90
29713;DHT22;16623;53.632;10.016;2024-03-23T08:41:01;10.10;99.90
29713;DHT22;16623;53.632;10.016;2024-03-23T08:43:28;10.20;99.90
29713;DHT22;16623;53.632;10.016;2024-03-23T08:46:09;10.20;99.90
29713;DHT22;16623;53.632;10.016;2024-03-23T08:48:42;10.30;99.90
29713;DHT22;16623;53.632;10.016;2024-03-23T08:51:09;10.30;99.90
29713;DHT22;16623;53.632;10.016;2024-03-23T08:53:36;10.20;99.90
29713;DHT22;16623;53.632;10.016;2024-03-23T08:56:02;10.20;99.90
29713;DHT22;16623;53.632;10.016;2024-03-23T08:58:29;10.40;99.90
29713;DHT22;16623;53.632;10.016;2024-03-23T09:00:56;10.40;99.90
29713;DHT22;16623;53.632;10.016;2024-03-23T09:03:25;10.50;99.90
29713;DHT22;16623;53.632;10.016;2024-03-23T09:05:51;10.40;99.90
29713;DHT22;16623;53.632;10.016;2024-03-23T09:08:17;10.30;99.90
29713;DHT22;16623;53.632;10.016;2024-03-23T09:10:43;10.50;99.90
29713;DHT22;16623;53.632;10.016;2024-03-23T09:13:09;10.60;99.90
29713;DHT22;16623;53.632;10.016;2024-03-23T09:15:36;10.90;99.90
29713;DHT22;16623;53.632;10.016;2024-03-23T09:18:03;10.90;99.90
29713;DHT22;16623;53.632;10.016;2024-03-23T09:20:28;10.70;99.90
29713;DHT22;16623;53.632;10.016;2024-03-23T09:22:54;10.50;99.90
29713;DHT22;16623;53.632;10.016;2024-03-23T09:25:19;10.50;99.90
29713;DHT22;16623;53.632;10.016;2024-03-23T09:27:46;10.80;99.90
29713;DHT22;16623;53.632;10.016;2024-03-23T09:30:13;10.40;99.90
29713;DHT22;16623;53.632;10.016;2024-03-23T09:32:40;10.30;99.90
29713;DHT22;16623;53.632;10.016;2024-03-23T09:35:06;10.10;99.90
29713;DHT22;16623;53.632;10.016;2024-03-23T09:37:32;10.00;99.90
29713;DHT22;16623;53.632;10.016;2024-03-23T09:39:57;9.90;99.90
29713;DHT22;16623;53.632;10.016;2024-03-23T09:42:23;10.00;99.90
29713;DHT22;16623;53.632;10.016;2024-03-23T09:44:51;9.90;99.90
29713;DHT22;16623;53.632;10.016;2024-03-23T09:47:17;10.00;99.90
29713;DHT22;16623;53.632;10.016;2024-03-23T09:49:43;10.10;99.90
29713;DHT22;16623;53.632;10.016;2024-03-23T09:52:09;10.00;99.90
29713;DHT22;16623;53.632;10.016;2024-03-23T09:54:35;10.10;99.90
29713;DHT22;16623;53.632;10.016;2024-03-23T09:57:00;10.30;99.90
29713;DHT22;16623;53.632;10.016;2024-03-23T09:59:26;10.60;99.90
29713;DHT22;16623;53.632;10.016;2024-03-23T10:01:53;10.60;99.90
29713;DHT22;16623;53.632;10.016;2024-03-23T10:04:37;10.60;99.90
29713;DHT22;16623;53.632;10.016;2024-03-23T10:07:19;10.50;99.90
29713;DHT22;16623;53.632;10.016;2024-03-23T10:09:45;10.30;99.90
29713;DHT22;16623;53.632;10.016;2024-03-23T10:12:16;10.10;99.90
29713;DHT22;16623;53.632;10.016;2024-03-23T10:14:43;10.30;99.90
29713;DHT22;16623;53.632;10.016;2024-03-23T10:19:47;10.90;99.90
29713;DHT22;16623;53.632;10.016;2024-03-23T10:22:18;11.30;99.90
29713;DHT22;16623;53.632;10.016;2024-03-23T10:24:44;11.50;99.90
29713;DHT22;16623;53.632;10.016;2024-03-23T10:27:14;12.00;99.90
29713;DHT22;16623;53.632;10.016;2024-03-23T10:29:40;12.40;99.90
29713;DHT22;16623;53.632;10.016;2024-03-23T10:32:10;12.70;99.90
29713;DHT22;16623;53.632;10.016;2024-03-23T10:34:36;12.80;99.90
29713;DHT22;16623;53.632;10.016;2024-03-23T10:37:03;12.50;99.90
29713;DHT22;16623;53.632;10.016;2024-03-23T10:39:33;12.70;99.90
29713;DHT22;16623;53.632;10.016;2024-03-23T10:42:10;12.70;99.90
29713;DHT22;16623;53.632;10.016;2024-03-23T10:44:36;12.40;99.90
29713;DHT22;16623;53.632;10.016;2024-03-23T10:47:02;11.90;99.90
29713;DHT22;16623;53.632;10.016;2024-03-23T10:49:32;11.60;99.90
29713;DHT22;16623;53.632;10.016;2024-03-23T10:51:59;11.40;99.90
29713;DHT22;16623;53.632;10.016;2024-03-23T10:54:26;11.50;99.90
29713;DHT22;16623;53.632;10.016;2024-03-23T10:57:12;11.70;99.90
29713;DHT22;16623;53.632;10.016;2024-03-23T10:59:38;11.60;99.90
29713;DHT22;16623;53.632;10.016;2024-03-23T11:02:05;11.70;99.90
29713;DHT22;16623;53.632;10.016;2024-03-23T11:04:32;11.80;99.90
29713;DHT22;16623;53.632;10.016;2024-03-23T11:06:57;11.80;99.90
29713;DHT22;16623;53.632;10.016;2024-03-23T11:09:40;11.80;99.90
29713;DHT22;16623;53.632;10.016;2024-03-23T11:14:52;11.90;99.90
29713;DHT22;16623;53.632;10.016;2024-03-23T11:17:19;11.90;99.90
29713;DHT22;16623;53.632;10.016;2024-03-23T11:19:59;11.80;99.90
29713;DHT22;16623;53.632;10.016;2024-03-23T11:25:23;11.50;99.90
29713;DHT22;16623;53.632;10.016;2024-03-23T11:27:50;11.10;99.90
29713;DHT22;16623;53.632;10.016;2024-03-23T11:30:20;10.80;99.90
29713;DHT22;16623;53.632;10.016;2024-03-23T11:32:48;10.70;99.90
29713;DHT22;16623;53.632;10.016;2024-03-23T11:40:35;11.30;99.90
29713;DHT22;16623;53.632;10.016;2024-03-23T11:43:05;11.50;99.90
29713;DHT22;16623;53.632;10.016;2024-03-23T11:50:32;11.60;99.90
29713;DHT22;16623;53.632;10.016;2024-03-23T11:53:17;11.70;99.90
29713;DHT22;16623;53.632;10.016;2024-03-23T11:58:13;11.40;99.90
29713;DHT22;16623;53.632;10.016;2024-03-23T12:00:39;11.30;99.90
29713;DHT22;16623;53.632;10.016;2024-03-23T12:03:05;11.10;99.90
29713;DHT22;16623;53.632;10.016;2024-03-23T12:05:32;10.70;99.90
29713;DHT22;16623;53.632;10.016;2024-03-23T12:08:21;10.30;99.90
29713;DHT22;16623;53.632;10.016;2024-03-23T12:11:06;9.60;99.90
29713;DHT22;16623;53.632;10.016;2024-03-23T12:13:33;9.00;99.90
29713;DHT22;16623;53.632;10.016;2024-03-23T12:16:12;8.60;99.90
29713;DHT22;16623;53.632;10.016;2024-03-23T12:18:39;8.30;99.90
29713;DHT22;16623;53.632;10.016;2024-03-23T12:21:05;8.10;99.90
29713;DHT22;16623;53.632;10.016;2024-03-23T12:23:31;7.90;99.90
29713;DHT22;16623;53.632;10.016;2024-03-23T12:25:58;7.90;99.90
29713;DHT22;16623;53.632;10.016;2024-03-23T12:28:23;7.90;99.90
29713;DHT22;16623;53.632;10.016;2024-03-23T12:30:49;8.20;99.90
29713;DHT22;16623;53.632;10.016;2024-03-23T12:33:15;8.60;99.90
29713;DHT22;16623;53.632;10.016;2024-03-23T12:35:40;9.00;99.90
29713;DHT22;16623;53.632;10.016;2024-03-23T12:38:06;9.40;99.90
29713;DHT22;16623;53.632;10.016;2024-03-23T12:40:32;9.50;99.90
29713;DHT22;16623;53.632;10.016;2024-03-23T12:42:58;9.40;99.90
29713;DHT22;16623;53.632;10.016;2024-03-23T12:45:23;9.20;99.90
29713;DHT22;16623;53.632;10.016;2024-03-23T12:47:49;9.10;99.90
29713;DHT22;16623;53.632;10.016;2024-03-23T12:50:14;8.80;99.90
29713;DHT22;16623;53.632;10.016;2024-03-23T12:52:40;8.50;99.90
29713;DHT22;16623;53.632;10.016;2024-03-23T12:55:07;8.10;99.90
29713;DHT22;16623;53.632;10.016;2024-03-23T12:57:32;8.00;99.90
29713;DHT22;16623;53.632;10.016;2024-03-23T12:59:58;7.90;99.90
29713;DHT22;16623;53.632;10.016;2024-03-23T13:02:24;7.70;99.90
29713;DHT22;16623;53.632;10.016;2024-03-23T13:04:51;7.70;99.90
29713;DHT22;16623;53.632;10.016;2024-03-23T13:07:17;7.60;99.90
29713;DHT22;16623;53.632;10.016;2024-03-23T13:09:43;7.70;99.90
29713;DHT22;16623;53.632;10.016;2024-03-23T13:12:09;7.80;99.90
29713;DHT22;16623;53.632;10.016;2024-03-23T13:14:35;7.90;99.90
29713;DHT22;16623;53.632;10.016;2024-03-23T13:17:01;8.10;99.90
29713;DHT22;16623;53.632;10.016;2024-03-23T13:19:28;8.00;99.90
29713;DHT22;16623;53.632;10.016;2024-03-23T13:21:59;8.20;99.90
29713;DHT22;16623;53.632;10.016;2024-03-23T13:24:25;8.20;99.90
29713;DHT22;16623;53.632;10.016;2024-03-23T13:26:52;8.30;99.90
29713;DHT22;16623;53.632;10.016;2024-03-23T13:29:18;8.30;99.90
29713;DHT22;16623;53.632;10.016;2024-03-23T13:31:44;8.40;99.90
29713;DHT22;16623;53.632;10.016;2024-03-23T13:34:10;8.40;99.90
29713;DHT22;16623;53.632;10.016;2024-03-23T13:36:36;8.50;99.90
29713;DHT22;16623;53.632;10.016;2024-03-23T13:39:02;8.50;99.90
29713;DHT22;16623;53.632;10.016;2024-03-23T13:41:32;8.60;99.90
29713;DHT22;16623;53.632;10.016;2024-03-23T13:43:57;8.70;99.90
29713;DHT22;16623;53.632;10.016;2024-03-23T13:46:23;8.90;99.90
29713;DHT22;16623;53.632;10.016;2024-03-23T13:48:48;8.90;99.90
29713;DHT22;16623;53.632;10.016;2024-03-23T13:51:14;9.90;99.90
29713;DHT22;16623;53.632;10.016;2024-03-23T13:53:40;8.80;99.90
29713;DHT22;16623;53.632;10.016;2024-03-23T13:56:05;9.00;99.90
29713;DHT22;16623;53.632;10.016;2024-03-23T13:58:31;9.10;99.90
29713;DHT22;16623;53.632;10.016;2024-03-23T14:00:57;8.90;99.90
29713;DHT22;16623;53.632;10.016;2024-03-23T14:03:23;9.00;99.90
29713;DHT22;16623;53.632;10.016;2024-03-23T14:05:49;9.00;99.90
29713;DHT22;16623;53.632;10.016;2024-03-23T14:08:14;9.30;99.90
29713;DHT22;16623;53.632;10.016;2024-03-23T14:10:41;9.30;99.90
29713;DHT22;16623;53.632;10.016;2024-03-23T14:13:07;9.20;99.90
29713;DHT22;16623;53.632;10.016;2024-03-23T14:15:33;9.10;99.90
29713;DHT22;16623;53.632;10.016;2024-03-23T14:17:59;9.10;99.90
29713;DHT22;16623;53.632;10.016;2024-03-23T14:20:25;9.10;99.90
29713;DHT22;16623;53.632;10.016;2024-03-23T14:22:51;9.30;99.90
29713;DHT22;16623;53.632;10.016;2024-03-23T14:25:17;9.30;99.90
29713;DHT22;16623;53.632;10.016;2024-03-23T14:27:46;9.40;99.90
29713;DHT22;16623;53.632;10.016;2024-03-23T14:30:12;9.50;99.90
29713;DHT22;16623;53.632;10.016;2024-03-23T14:32:39;9.50;99.90
29713;DHT22;16623;53.632;10.016;2024-03-23T14:35:05;9.60;99.90
29713;DHT22;16623;53.632;10.016;2024-03-23T14:37:32;9.80;99.90
29713;DHT22;16623;53.632;10.016;2024-03-23T14:39:58;9.80;99.90
29713;DHT22;16623;53.632;10.016;2024-03-23T14:42:24;9.90;99.90
29713;DHT22;16623;53.632;10.016;2024-03-23T14:44:50;9.80;99.90
29713;DHT22;16623;53.632;10.016;2024-03-23T14:47:17;9.70;99.90
29713;DHT22;16623;53.632;10.016;2024-03-23T14:49:43;9.60;99.90
29713;DHT22;16623;53.632;10.016;2024-03-23T14:52:19;9.50;99.90
29713;DHT22;16623;53.632;10.016;2024-03-23T14:54:45;9.40;99.90
29713;DHT22;16623;53.632;10.016;2024-03-23T14:57:11;10.40;99.90
29713;DHT22;16623;53.632;10.016;2024-03-23T14:59:37;9.30;99.90
29713;DHT22;16623;53.632;10.016;2024-03-23T15:02:04;9.20;99.90
29713;DHT22;16623;53.632;10.016;2024-03-23T15:04:29;9.10;99.90
29713;DHT22;16623;53.632;10.016;2024-03-23T15:06:55;8.90;99.90
29713;DHT22;16623;53.632;10.016;2024-03-23T15:09:20;8.60;99.90
29713;DHT22;16623;53.632;10.016;2024-03-23T15:11:46;8.50;99.90
29713;DHT22;16623;53.632;10.016;2024-03-23T15:14:11;8.30;99.90
29713;DHT22;16623;53.632;10.016;2024-03-23T15:16:37;8.20;99.90
29713;DHT22;16623;53.632;10.016;2024-03-23T15:19:02;9.80;99.90
29713;DHT22;16623;53.632;10.016;2024-03-23T15:21:30;8.30;99.90
29713;DHT22;16623;53.632;10.016;2024-03-23T15:23:57;8.40;99.90
29713;DHT22;16623;53.632;10.016;2024-03-23T15:26:23;8.50;99.90
29713;DHT22;16623;53.632;10.016;2024-03-23T15:28:49;8.40;99.90
29713;DHT22;16623;53.632;10.016;2024-03-23T15:31:23;8.50;99.90
29713;DHT22;16623;53.632;10.016;2024-03-23T15:33:49;8.50;99.90
29713;DHT22;16623;53.632;10.016;2024-03-23T15:36:15;8.50;99.90
29713;DHT22;16623;53.632;10.016;2024-03-23T15:38:40;8.50;99.90
29713;DHT22;16623;53.632;10.016;2024-03-23T15:41:06;8.70;99.90
29713;DHT22;16623;53.632;10.016;2024-03-23T15:43:32;8.70;99.90
29713;DHT22;16623;53.632;10.016;2024-03-23T15:45:59;8.70;99.90
29713;DHT22;16623;53.632;10.016;2024-03-23T15:48:26;8.60;99.90
29713;DHT22;16623;53.632;10.016;2024-03-23T15:50:59;8.50;99.90
29713;DHT22;16623;53.632;10.016;2024-03-23T15:53:26;8.40;99.90
29713;DHT22;16623;53.632;10.016;2024-03-23T15:56:02;8.30;99.90
29713;DHT22;16623;53.632;10.016;2024-03-23T15:58:29;8.30;99.90
29713;DHT22;16623;53.632;10.016;2024-03-23T16:01:02;8.20;99.90
29713;DHT22;16623;53.632;10.016;2024-03-23T16:03:29;8.10;99.90
29713;DHT22;16623;53.632;10.016;2024-03-23T16:08:24;8.00;99.90
29713;DHT22;16623;53.632;10.016;2024-03-23T16:10:50;7.90;99.90
29713;DHT22;16623;53.632;10.016;2024-03-23T16:13:17;7.90;99.90
29713;DHT22;16623;53.632;10.016;2024-03-23T16:15:53;8.00;99.90
29713;DHT22;16623;53.632;10.016;2024-03-23T16:18:19;8.00;99.90
29713;DHT22;16623;53.632;10.016;2024-03-23T16:20:52;8.10;99.90
29713;DHT22;16623;53.632;10.016;2024-03-23T16:23:18;8.20;99.90
29713;DHT22;16623;53.632;10.016;2024-03-23T16:25:50;8.20;99.90
29713;DHT22;16623;53.632;10.016;2024-03-23T16:28:26;8.20;99.90
29713;DHT22;16623;53.632;10.016;2024-03-23T16:30:54;7.90;99.90
29713;DHT22;16623;53.632;10.016;2024-03-23T16:33:20;7.80;99.90
29713;DHT22;16623;53.632;10.016;2024-03-23T16:36:04;7.60;99.90
29713;DHT22;16623;53.632;10.016;2024-03-23T16:38:34;7.30;99.90
29713;DHT22;16623;53.632;10.016;2024-03-23T16:41:01;7.30;99.90
29713;DHT22;16623;53.632;10.016;2024-03-23T16:43:27;7.30;99.90